Polkville, NC (28136)

6:40 PM EDT on September 01, 2015 (GMT -0400)
www.bbengineering.com | | Change Station
CLOSE
Current Station
Personal Weather Station
Location: Polkville, NC
Elevation: 1079 ft
Nearby Weather Stations

Elev 1079 ft 35.41 °N, 81.66 °W | Updated 15 seconds ago

Partly Cloudy
Partly Cloudy
90.7 °F
Feels Like 92 °F
N
1.7
Wind Variable Wind from ESE
Gusts 3.2 mph

Today
High -- | Low -- °F
--% Chance of Precip.
Yesterday
High -- | Low -- °F
Precip. -- in
6:58 AM 7:53 PM
Waning Gibbous, 86% visible
Pressure 30.07 in
Visibility 10.0 miles
Clouds Overcast 12000 ft
Heat Index 92 °F
Dew Point 64 °F
Humidity 42%
Rainfall 0.00 in
Snow Depth Not available.
UV 0 out of 12
Pollen 9.20 out of 12
Air Quality Not available.
Flu Activity Not available.
METAR KEHO 012218Z AUTO 00000KT 10SM OVC120 31/17 A3007 RMK AO2
Pressure 30.07 in
Visibility 10.0 miles
Clouds Overcast 12000 ft
Heat Index 92 °F
Dew Point 64 °F
Humidity 42%
Rainfall 0.00 in
Snow Depth Not available.
UV 0 out of 12
Pollen 9.20 out of 12
Air Quality Not available.
Flu Activity Not available.
METAR KEHO 012218Z AUTO 00000KT 10SM OVC120 31/17 A3007 RMK AO2

10-Day Weather Forecast

×

Almanac

Astronomy

Sep. 01, 2015 Rise Set
Actual Time
Civil Twilight
Nautical Twilight
Astronomical Twilight
Moon
Length of Visible Light
Length of Day
Tomorrow will be .
, % of the Moon is Illuminated

Today's Extremes

State Highs State Lows

Community

WunderPhotos

Upload Photos

1,851,634 photos uploaded!

WunderBlogs® & News

Nearby

Air Quality

  Air Quality AQ Index Pollutant
Not available.

Snow Depth

Station Depth Elevation

Earthquake Activity

City Distance Mag. Time & Date
Minimum magnitude displayed is 2.5.

Coastal Water Temperatures

Place Temperature

Stations

Nearby Weather Stations

Station Location Temp. Windchill Dew Point Humidity Wind Precip. Elev Updated Type